Apple River, Illinois
Current Conditions -  °F | °C
As of 3:35 PM on Thursday 23 Oct 2014 (Local Time) from KPVB Reporting Station
Overcast Overcast  
Wind Chill: 50°   Ceiling: 1500
Heat Index: 50°   Visibility: 7mi
Dew Point: 49°   Wind: 6mph
Humidity: 94%   Direction: 190°S
Pressure: 30.04"   Gusts: NA
Location:  42.51°N, 90.1°W
Report Text: KPVB 232035Z AUTO 19005KT 7SM OVC015 10/09 A3004 RMK AO1 T01020092
Loading
Personal Weather Stations






























Interactive Weather Map
Tropical Storm Tracking
New forecast layout! Learn more

10-Day Weather Forecast

Advertisements
Track Severe Weather on mobile